La Salle, Michigan
Current Conditions -  °F | °C
As of 11:16 AM on Wednesday 22 Oct 2014 (Local Time) from KTTF Reporting Station
Overcast Overcast  
Wind Chill: 44°   Ceiling: 2000
Heat Index: 48°   Visibility: 10mi
Dew Point: 39°   Wind: 9mph
Humidity: 71%   Direction: 20°NNE
Pressure: 30.32"   Gusts: NA
Location:  41.87°N, 83.45°W
Report Text: KTTF 221516Z AUTO 02008KT 10SM OVC020 09/04 A3032 RMK AO2
Loading
Personal Weather Stations






























Interactive Weather Map
Tropical Storm Tracking
New forecast layout! Learn more

10-Day Weather Forecast

Advertisements
Track Severe Weather on mobile